Terminal Aerodrome Forecast
Issued by NWS

Home | Current Version | Previous Version | Text Only | Print | Product List | Glossary On
Versions: 1 2 3 4 5 6 7 8 9 10 11 12 13 14 15
000
FTUS45 KTFX 281144
TAFLWT
TAF
KLWT 281144Z 2812/2912 28020G28KT P6SM -RA BKN040 BKN070
     FM281500 28022G32KT P6SM VCSH SCT050 BKN090
     FM282000 30022G32KT P6SM SCT070 BKN120
     FM290200 23006KT P6SM BKN150=

USA.gov is the U.S. government's official web portal to all federal, state and local government web resources and services.